createdAt,value
2023-03-05T00:04:14.463Z,1.47
2023-03-05T00:09:17.913Z,1.45
2023-03-05T00:14:21.011Z,1.46
2023-03-05T00:19:24.095Z,1.41
2023-03-05T00:24:27.114Z,1.32
2023-03-05T00:29:31.807Z,1.31
2023-03-05T00:34:36.350Z,1.32
2023-03-05T00:39:39.344Z,1.33
2023-03-05T00:44:42.329Z,1.34
2023-03-05T00:49:45.437Z,1.43
2023-03-05T00:54:48.591Z,1.53
2023-03-05T00:59:51.533Z,1.64
2023-03-05T01:04:54.549Z,1.70
2023-03-05T01:09:57.556Z,1.74
2023-03-05T01:15:01.211Z,1.73
2023-03-05T01:20:05.802Z,1.74
2023-03-05T01:25:09.717Z,1.72
2023-03-05T01:30:15.666Z,1.71
2023-03-05T01:35:22.699Z,1.69
2023-03-05T01:40:29.131Z,1.66
2023-03-05T01:45:35.418Z,1.61
2023-03-05T01:50:38.694Z,1.62
2023-03-05T01:55:41.780Z,1.65
2023-03-05T02:00:48.587Z,1.65
2023-03-05T02:05:51.731Z,1.63
2023-03-05T02:10:57.855Z,1.61
2023-03-05T02:16:03.779Z,1.55
2023-03-05T02:21:08.645Z,1.53
2023-03-05T02:26:11.744Z,1.54
2023-03-05T02:31:21.911Z,1.55
2023-03-05T02:36:25.286Z,1.54
2023-03-05T02:41:28.750Z,1.52
2023-03-05T02:46:31.846Z,1.48
2023-03-05T02:51:35.117Z,1.44
2023-03-05T02:56:39.626Z,1.40
2023-03-05T03:01:42.630Z,1.34
2023-03-05T03:06:45.607Z,1.33
2023-03-05T03:11:49.506Z,1.31
2023-03-05T03:16:53.289Z,1.25
2023-03-05T03:21:56.200Z,1.18
2023-03-05T03:26:59.316Z,1.12
2023-03-05T03:32:05.516Z,0.99
2023-03-05T03:37:09.035Z,0.85
2023-03-05T03:42:12.098Z,0.72
2023-03-05T03:47:15.457Z,0.61
2023-03-05T03:52:18.149Z,0.51
2023-03-05T03:57:21.466Z,0.45
2023-03-05T04:02:24.332Z,0.38
2023-03-05T04:07:28.259Z,0.29
2023-03-05T04:12:31.572Z,0.22
2023-03-05T04:17:34.670Z,0.16
2023-03-05T04:22:38.193Z,0.08
2023-03-05T04:27:41.312Z,0.02
2023-03-05T04:32:44.377Z,-0.01
2023-03-05T04:37:47.401Z,0.00
2023-03-05T04:42:50.351Z,0.03
2023-03-05T04:47:53.856Z,0.10
2023-03-05T04:52:56.615Z,0.28
2023-03-05T04:57:59.629Z,0.41
2023-03-05T05:03:02.906Z,0.56
2023-03-05T05:08:06.224Z,0.67
2023-03-05T05:13:09.187Z,0.76
2023-03-05T05:18:12.457Z,0.90
2023-03-05T05:23:16.509Z,1.05
2023-03-05T05:28:19.477Z,1.18
2023-03-05T05:33:23.438Z,1.29
2023-03-05T05:38:26.579Z,1.44
2023-03-05T05:43:29.668Z,1.56
2023-03-05T05:48:35.810Z,1.69
2023-03-05T05:53:40.613Z,1.83
2023-03-05T05:58:45.172Z,1.95
2023-03-05T06:03:48.693Z,2.04
2023-03-05T06:08:53.183Z,2.11
2023-03-05T06:13:56.204Z,2.20
2023-03-05T06:19:04.285Z,2.26
2023-03-05T06:24:07.833Z,2.34
2023-03-05T06:29:11.051Z,2.39
2023-03-05T06:34:14.107Z,2.47
2023-03-05T06:39:17.328Z,2.52
2023-03-05T06:44:20.269Z,2.58
2023-03-05T06:49:23.005Z,2.66
2023-03-05T06:54:26.096Z,2.72
2023-03-05T06:59:29.127Z,2.82
2023-03-05T07:04:32.181Z,2.85
2023-03-05T07:09:35.139Z,2.90
2023-03-05T07:14:39.417Z,2.89
2023-03-05T07:19:44.035Z,2.89
2023-03-05T07:24:47.428Z,2.90
2023-03-05T07:29:50.415Z,2.92
2023-03-05T07:34:53.577Z,2.95
2023-03-05T07:39:56.519Z,2.93
2023-03-05T07:44:59.611Z,3.01
2023-03-05T07:50:04.329Z,3.06
2023-03-05T07:55:07.803Z,3.12
2023-03-05T08:00:11.674Z,3.21
2023-03-05T08:05:15.170Z,3.29
2023-03-05T08:10:18.223Z,3.35
2023-03-05T08:15:21.241Z,3.43
2023-03-05T08:20:24.780Z,3.58
2023-03-05T08:25:28.350Z,3.68
2023-03-05T08:30:31.653Z,3.77
2023-03-05T08:35:34.731Z,3.93
2023-03-05T08:40:38.265Z,4.11
2023-03-05T08:45:41.315Z,4.18
2023-03-05T08:50:44.250Z,4.18
2023-03-05T08:55:58.308Z,4.10
2023-03-05T09:01:05.248Z,4.02
2023-03-05T09:06:12.366Z,4.02
2023-03-05T09:11:15.665Z,4.12
2023-03-05T09:16:19.898Z,4.26
2023-03-05T09:21:24.114Z,4.48
2023-03-05T09:26:27.644Z,4.73
2023-03-05T09:31:30.707Z,4.85
2023-03-05T09:36:34.242Z,4.96
2023-03-05T09:42:10.268Z,4.93
2023-03-05T09:47:27.242Z,4.96
2023-03-05T09:52:56.029Z,4.93
2023-03-05T09:58:07.815Z,4.90
2023-03-05T10:03:51.084Z,4.90
2023-03-05T10:09:21.065Z,4.80
2023-03-05T10:14:38.406Z,4.86
2023-03-05T10:20:46.160Z,4.94
2023-03-05T10:26:01.060Z,5.02
2023-03-05T10:31:25.331Z,5.14
2023-03-05T10:36:28.503Z,5.19
2023-03-05T10:41:53.251Z,5.15
2023-03-05T10:47:00.106Z,5.23
2023-03-05T10:52:07.561Z,5.21
2023-03-05T10:57:38.369Z,5.24
2023-03-05T11:03:06.869Z,5.25
2023-03-05T11:08:29.514Z,5.18
2023-03-05T11:13:33.899Z,5.15
2023-03-05T11:18:37.856Z,5.17
2023-03-05T11:23:41.353Z,5.25
2023-03-05T11:28:54.842Z,5.25
2023-03-05T11:34:21.568Z,5.12
2023-03-05T11:39:26.183Z,4.94
2023-03-05T11:44:42.995Z,4.96
2023-03-05T11:49:50.709Z,4.94
2023-03-05T11:55:15.980Z,4.89
2023-03-05T12:00:27.131Z,4.79
2023-03-05T12:05:31.499Z,4.88
2023-03-05T12:10:35.029Z,5.07
2023-03-05T12:16:01.662Z,5.16
2023-03-05T12:21:26.125Z,5.42
2023-03-05T12:26:54.421Z,5.56
2023-03-05T12:31:58.977Z,5.71
2023-03-05T12:37:01.907Z,5.87
2023-03-05T12:42:30.739Z,6.16
2023-03-05T12:47:33.683Z,6.32
2023-03-05T12:52:39.842Z,6.40
2023-03-05T12:57:45.867Z,6.33
2023-03-05T13:02:58.063Z,6.18
2023-03-05T13:08:26.793Z,6.00
2023-03-05T13:13:36.057Z,5.92
2023-03-05T13:18:45.660Z,5.84
2023-03-05T13:23:58.972Z,5.61
2023-03-05T13:29:12.477Z,5.35
2023-03-05T13:34:40.966Z,5.17
2023-03-05T13:39:59.853Z,5.03
2023-03-05T13:45:16.859Z,4.92
2023-03-05T13:50:39.117Z,4.75
2023-03-05T13:55:42.307Z,4.66
2023-03-05T14:00:45.232Z,4.63
2023-03-05T14:05:50.066Z,4.63
2023-03-05T14:10:59.211Z,4.60
2023-03-05T14:16:33.391Z,4.55
2023-03-05T14:21:49.138Z,4.48
2023-03-05T14:27:03.370Z,4.44
2023-03-05T14:32:17.365Z,4.40
2023-03-05T14:37:38.795Z,4.36
2023-03-05T14:42:41.717Z,4.32
2023-03-05T14:47:45.245Z,4.32
2023-03-05T14:52:52.381Z,4.37
2023-03-05T14:58:10.829Z,4.36
2023-03-05T15:03:16.753Z,4.38
2023-03-05T15:08:27.014Z,4.40
2023-03-05T15:13:31.760Z,4.38
2023-03-05T15:18:34.800Z,4.35
2023-03-05T15:23:38.619Z,4.28
2023-03-05T15:28:43.255Z,4.16
2023-03-05T15:33:46.251Z,4.09
2023-03-05T15:38:49.287Z,4.02
2023-03-05T15:43:52.420Z,3.97
2023-03-05T15:48:55.568Z,3.96
2023-03-05T15:53:59.450Z,3.92
2023-03-05T15:59:06.096Z,3.83
2023-03-05T16:04:09.108Z,3.75
2023-03-05T16:09:13.981Z,3.67
2023-03-05T16:14:23.446Z,3.53
2023-03-05T16:19:27.809Z,3.45
2023-03-05T16:24:30.888Z,3.39
2023-03-05T16:29:34.992Z,3.33
2023-03-05T16:34:37.972Z,3.26
2023-03-05T16:39:41.007Z,3.16
2023-03-05T16:44:44.913Z,3.08
2023-03-05T16:49:47.899Z,2.97
2023-03-05T16:54:50.953Z,2.83
2023-03-05T16:59:56.762Z,2.74
2023-03-05T17:05:00.196Z,2.64
2023-03-05T17:10:03.281Z,2.56
2023-03-05T17:15:07.949Z,2.46
2023-03-05T17:20:13.166Z,2.37
2023-03-05T17:25:16.274Z,2.28
2023-03-05T17:30:19.978Z,2.19
2023-03-05T17:35:23.504Z,2.13
2023-03-05T17:40:26.410Z,2.06
2023-03-05T17:45:29.344Z,2.01
2023-03-05T17:50:32.373Z,1.96
2023-03-05T17:55:35.298Z,1.92
2023-03-05T18:00:38.338Z,1.82
2023-03-05T18:05:41.614Z,1.76
2023-03-05T18:10:44.794Z,1.69
2023-03-05T18:15:48.000Z,1.61
2023-03-05T18:20:51.148Z,1.52
2023-03-05T18:25:54.236Z,1.47
2023-03-05T18:30:57.269Z,1.44
2023-03-05T18:36:00.353Z,1.43
2023-03-05T18:41:06.346Z,1.42
2023-03-05T18:46:10.534Z,1.37
2023-03-05T18:51:17.876Z,1.27
2023-03-05T18:56:22.226Z,1.18
2023-03-05T19:01:25.586Z,1.09
2023-03-05T19:06:28.849Z,1.03
2023-03-05T19:11:31.906Z,1.01
2023-03-05T19:16:40.607Z,1.05
2023-03-05T19:21:50.860Z,1.10
2023-03-05T19:27:00.964Z,1.11
2023-03-05T19:32:07.708Z,1.12
2023-03-05T19:37:12.142Z,1.06
2023-03-05T19:42:15.401Z,1.01
2023-03-05T19:47:20.380Z,0.93
2023-03-05T19:52:23.398Z,0.86
2023-03-05T19:57:29.364Z,0.79
2023-03-05T20:02:32.836Z,0.77
2023-03-05T20:07:36.010Z,0.74
2023-03-05T20:12:39.495Z,0.71
2023-03-05T20:17:45.905Z,0.66
2023-03-05T20:22:49.021Z,0.60
2023-03-05T20:27:52.686Z,0.55
2023-03-05T20:32:55.827Z,0.53
2023-03-05T20:38:21.708Z,0.51
2023-03-05T20:43:35.415Z,0.55
2023-03-05T20:48:38.484Z,0.58
2023-03-05T20:53:41.533Z,0.61
2023-03-05T20:58:44.696Z,0.63
2023-03-05T21:03:48.007Z,0.68
2023-03-05T21:08:51.074Z,0.69
2023-03-05T21:13:54.143Z,0.68
2023-03-05T21:18:57.627Z,0.72
2023-03-05T21:24:00.706Z,0.75
2023-03-05T21:29:03.917Z,0.78
2023-03-05T21:34:07.771Z,0.80
2023-03-05T21:39:10.754Z,0.84
2023-03-05T21:44:17.644Z,0.88
2023-03-05T21:49:20.683Z,0.90
2023-03-05T21:54:24.194Z,0.92
2023-03-05T21:59:27.292Z,0.92
2023-03-05T22:04:30.273Z,1.00
2023-03-05T22:09:33.294Z,1.12
2023-03-05T22:14:36.661Z,1.20
2023-03-05T22:19:39.702Z,1.21
2023-03-05T22:24:42.744Z,1.24
2023-03-05T22:29:45.725Z,1.24
2023-03-05T22:34:48.689Z,1.22
2023-03-05T22:39:55.768Z,1.19
2023-03-05T22:44:59.515Z,1.17
2023-03-05T22:50:03.176Z,1.15
2023-03-05T22:55:07.030Z,1.14
2023-03-05T23:00:19.001Z,1.13
2023-03-05T23:05:22.081Z,1.15
2023-03-05T23:10:28.622Z,1.15
2023-03-05T23:15:38.282Z,1.13
2023-03-05T23:20:41.719Z,1.13
2023-03-05T23:25:44.733Z,1.13
2023-03-05T23:30:47.861Z,1.14
2023-03-05T23:35:55.945Z,1.14
2023-03-05T23:41:01.407Z,1.15
2023-03-05T23:46:12.047Z,1.18
2023-03-05T23:51:15.148Z,1.17
2023-03-05T23:56:18.120Z,1.14
